Time;durP1;ratioP1;P1;durP2;ratioP2;P2;SDS_P1;SDS_P2;PMS_P1;PMS_P2;Temp;Humidity;BMP_temperature;BMP_pressure;BME280_temperature;BME280_humidity;BME280_pressure;Samples;Min_cycle;Max_cycle;Signal;HPM_P1;HPM_P2
2021/01/08 00:00:10;;;;;;;18.75;15.18;;;5.30;99.90;;;;;;4995750;28;20026;-72
2021/01/08 00:02:36;;;;;;;26.15;15.02;;;5.30;99.90;;;;;;5011778;28;20029;-73
2021/01/08 00:05:02;;;;;;;13.73;12.15;;;5.30;99.90;;;;;;5015933;28;20105;-74
2021/01/08 00:07:35;;;;;;;16.90;13.05;;;5.30;99.90;;;;;;5016095;28;20037;-72
2021/01/08 00:10:02;;;;;;;16.15;11.02;;;5.40;99.90;;;;;;4999206;28;20026;-72
2021/01/08 00:12:32;;;;;;;15.95;12.43;;;5.40;99.90;;;;;;5016412;28;20112;-74
2021/01/08 00:14:59;;;;;;;14.77;10.15;;;5.30;99.90;;;;;;5016416;28;20516;-73
2021/01/08 00:17:25;;;;;;;12.65;7.82;;;5.40;99.90;;;;;;5015955;28;20026;-72
2021/01/08 00:19:52;;;;;;;12.77;9.45;;;5.60;99.90;;;;;;5015026;28;20053;-75
2021/01/08 00:22:18;;;;;;;13.95;10.10;;;5.70;99.90;;;;;;5014969;28;20026;-72
2021/01/08 00:24:44;;;;;;;13.18;11.32;;;5.70;99.90;;;;;;5006980;28;20029;-74
2021/01/08 00:27:10;;;;;;;14.35;7.63;;;5.80;99.90;;;;;;5016009;28;20026;-75
2021/01/08 00:29:36;;;;;;;12.85;9.50;;;5.80;99.90;;;;;;5015835;28;20025;-73
2021/01/08 00:32:02;;;;;;;15.55;8.43;;;5.70;99.90;;;;;;5016057;28;20026;-73
2021/01/08 00:34:28;;;;;;;12.30;8.10;;;5.70;99.90;;;;;;5015312;28;20125;-76
2021/01/08 00:36:55;;;;;;;8.45;7.50;;;5.90;99.90;;;;;;5015991;28;20050;-72
2021/01/08 00:39:22;;;;;;;9.15;7.78;;;5.80;99.90;;;;;;5014526;28;20057;-72
2021/01/08 00:41:49;;;;;;;7.65;6.82;;;5.80;99.90;;;;;;5014214;28;20041;-71
2021/01/08 00:44:16;;;;;;;9.82;7.38;;;5.80;99.90;;;;;;5014777;28;20100;-75
2021/01/08 00:46:45;;;;;;;8.38;7.03;;;5.80;99.90;;;;;;5016090;28;20051;-72
2021/01/08 00:49:11;;;;;;;14.13;8.15;;;5.90;99.90;;;;;;5015837;28;20065;-75
2021/01/08 00:51:38;;;;;;;9.40;7.57;;;5.90;99.90;;;;;;5014819;28;20497;-75
2021/01/08 00:54:05;;;;;;;11.18;7.90;;;5.90;99.90;;;;;;5016244;28;20103;-72
2021/01/08 00:56:31;;;;;;;11.23;8.43;;;5.80;99.90;;;;;;5014796;28;20041;-71
2021/01/08 00:58:57;;;;;;;10.50;8.48;;;5.80;99.90;;;;;;5014689;28;20029;-72
2021/01/08 01:01:23;;;;;;;10.38;9.05;;;5.80;99.90;;;;;;5015189;28;20022;-71
2021/01/08 01:03:49;;;;;;;11.25;7.50;;;5.80;99.90;;;;;;5014726;28;20030;-72
2021/01/08 01:06:26;;;;;;;13.38;9.05;;;5.80;99.90;;;;;;5014684;28;20506;-75
2021/01/08 01:08:53;;;;;;;9.18;7.55;;;5.70;99.90;;;;;;5016092;28;20022;-73
2021/01/08 01:11:21;;;;;;;10.70;8.85;;;5.70;99.90;;;;;;5015890;28;20041;-72
2021/01/08 01:13:47;;;;;;;14.18;8.65;;;5.70;99.90;;;;;;5014472;28;20030;-72
2021/01/08 01:16:17;;;;;;;11.63;8.48;;;5.70;99.90;;;;;;5030555;28;20125;-71
2021/01/08 01:18:44;;;;;;;13.13;9.02;;;5.70;99.90;;;;;;5015650;28;20014;-71
2021/01/08 01:21:11;;;;;;;11.23;8.90;;;5.80;99.90;;;;;;5015056;28;20026;-74
2021/01/08 01:23:37;;;;;;;12.43;9.63;;;5.80;99.90;;;;;;5014190;28;20493;-72
2021/01/08 01:26:04;;;;;;;10.10;8.75;;;5.70;99.90;;;;;;5014959;28;20029;-72
2021/01/08 01:28:30;;;;;;;12.43;9.00;;;5.70;99.90;;;;;;5015548;28;20034;-71
2021/01/08 01:30:56;;;;;;;13.45;8.15;;;5.60;99.90;;;;;;5015406;28;20045;-73
2021/01/08 01:33:22;;;;;;;11.13;7.32;;;5.70;99.90;;;;;;5015291;28;20034;-71
2021/01/08 01:35:48;;;;;;;8.90;7.57;;;5.70;99.90;;;;;;5014853;28;20053;-71
2021/01/08 01:38:14;;;;;;;8.77;7.80;;;5.70;99.90;;;;;;5012556;28;20018;-72
2021/01/08 01:40:40;;;;;;;15.35;7.88;;;5.70;99.90;;;;;;5014810;28;20445;-71
2021/01/08 01:43:06;;;;;;;11.23;8.95;;;5.70;99.90;;;;;;5013428;28;20124;-73
2021/01/08 01:45:32;;;;;;;11.25;7.63;;;5.70;99.90;;;;;;5013189;28;20073;-71
2021/01/08 01:47:58;;;;;;;11.73;9.50;;;5.70;99.90;;;;;;5014524;28;20022;-74
2021/01/08 01:50:25;;;;;;;9.63;7.93;;;5.70;99.90;;;;;;5014003;28;20033;-74
2021/01/08 01:52:51;;;;;;;12.38;8.13;;;5.70;99.90;;;;;;5018076;28;20034;-72
2021/01/08 01:55:18;;;;;;;10.70;8.20;;;5.70;99.90;;;;;;5019697;28;20022;-75
2021/01/08 01:57:44;;;;;;;9.73;8.05;;;5.60;99.90;;;;;;5018610;28;20107;-72
2021/01/08 02:00:10;;;;;;;9.48;7.45;;;5.60;99.90;;;;;;5015046;28;20500;-73
2021/01/08 02:02:39;;;;;;;9.80;7.82;;;5.60;99.90;;;;;;5029774;28;20113;-71
2021/01/08 02:05:07;;;;;;;12.02;7.35;;;5.60;99.90;;;;;;5014164;28;20026;-73
2021/01/08 02:07:36;;;;;;;14.05;7.90;;;5.60;99.90;;;;;;5014269;28;20032;-75
2021/01/08 02:10:05;;;;;;;10.45;8.02;;;5.60;99.90;;;;;;5013889;28;20389;-73
2021/01/08 02:12:33;;;;;;;9.40;7.75;;;5.50;99.90;;;;;;5014597;28;20493;-74
2021/01/08 02:15:01;;;;;;;10.38;8.10;;;5.50;99.90;;;;;;5013644;28;20026;-72
2021/01/08 02:17:28;;;;;;;13.27;8.77;;;5.60;99.90;;;;;;5013331;28;20055;-71
2021/01/08 02:20:07;;;;;;;9.48;7.75;;;5.60;99.90;;;;;;5028812;28;20117;-73
2021/01/08 02:22:44;;;;;;;10.55;8.02;;;5.50;99.90;;;;;;5014668;28;20049;-72
2021/01/08 02:25:23;;;;;;;10.00;7.45;;;5.50;99.90;;;;;;5012753;28;20120;-72
2021/01/08 02:28:04;;;;;;;13.80;9.05;;;5.40;99.90;;;;;;5014578;28;20627;-73
2021/01/08 02:30:34;;;;;;;13.43;7.78;;;5.40;99.90;;;;;;5013902;28;20069;-73
2021/01/08 02:33:01;;;;;;;11.00;9.13;;;5.40;99.90;;;;;;5014540;28;20082;-73
2021/01/08 02:35:28;;;;;;;9.05;7.20;;;5.50;99.90;;;;;;5020019;28;20505;-73
2021/01/08 02:37:56;;;;;;;9.13;7.32;;;5.50;99.90;;;;;;5022821;28;20244;-73
2021/01/08 02:40:23;;;;;;;10.68;7.53;;;5.50;99.90;;;;;;5020536;28;20022;-73
2021/01/08 02:42:52;;;;;;;10.98;7.30;;;5.50;99.90;;;;;;5012771;28;20030;-72
2021/01/08 02:45:18;;;;;;;11.48;7.95;;;5.50;99.90;;;;;;5013766;28;20034;-73
2021/01/08 02:47:44;;;;;;;12.60;9.07;;;5.50;99.90;;;;;;5013799;28;20393;-72
2021/01/08 02:50:10;;;;;;;9.18;7.90;;;5.50;99.90;;;;;;5013152;28;20022;-73
2021/01/08 02:52:43;;;;;;;10.25;7.60;;;5.50;99.90;;;;;;5011739;28;20022;-72
2021/01/08 02:55:12;;;;;;;10.32;7.97;;;5.60;99.90;;;;;;5011638;28;20121;-73
2021/01/08 02:57:42;;;;;;;10.18;8.85;;;5.50;99.90;;;;;;5010933;28;20080;-72
2021/01/08 03:00:10;;;;;;;10.32;8.25;;;5.60;99.90;;;;;;5011993;28;20022;-72
2021/01/08 03:02:36;;;;;;;11.65;9.02;;;5.60;99.90;;;;;;5011645;28;20485;-73
2021/01/08 03:05:03;;;;;;;9.77;7.63;;;5.70;99.90;;;;;;5013393;28;20029;-75
2021/01/08 03:07:29;;;;;;;12.55;8.10;;;5.70;99.90;;;;;;5013100;28;20026;-73
2021/01/08 03:09:55;;;;;;;10.35;7.88;;;5.70;99.90;;;;;;5013343;28;20030;-73
2021/01/08 03:12:21;;;;;;;13.18;9.77;;;5.70;99.90;;;;;;5012222;28;20117;-73
2021/01/08 03:14:47;;;;;;;10.38;8.60;;;5.80;99.90;;;;;;5013690;28;20105;-73
2021/01/08 03:17:14;;;;;;;9.98;8.30;;;5.80;99.90;;;;;;5011655;28;20025;-73
2021/01/08 03:19:40;;;;;;;11.07;8.40;;;5.80;99.90;;;;;;5014511;28;20026;-73
2021/01/08 03:22:06;;;;;;;10.13;7.78;;;5.80;99.90;;;;;;5020172;28;20536;-73
2021/01/08 03:24:32;;;;;;;12.30;9.05;;;5.80;99.90;;;;;;5018945;28;20052;-73
2021/01/08 03:26:58;;;;;;;11.18;7.95;;;5.80;99.90;;;;;;5019511;28;20473;-73
2021/01/08 03:29:25;;;;;;;10.30;7.75;;;5.90;99.90;;;;;;5020017;28;20049;-76
2021/01/08 03:31:51;;;;;;;9.48;8.30;;;5.80;99.90;;;;;;5020046;28;20026;-73
2021/01/08 03:34:16;;;;;;;10.57;8.73;;;5.90;99.90;;;;;;5018551;28;20029;-73
2021/01/08 03:36:42;;;;;;;8.32;7.25;;;5.90;99.90;;;;;;5017963;28;20062;-72
2021/01/08 03:39:08;;;;;;;8.20;6.47;;;6.00;99.90;;;;;;5018412;28;20096;-76
2021/01/08 03:41:34;;;;;;;15.50;11.68;;;6.00;99.90;;;;;;5019465;28;20528;-73
2021/01/08 03:44:00;;;;;;;9.38;7.25;;;5.90;99.90;;;;;;5019881;28;20022;-73
2021/01/08 03:46:26;;;;;;;11.00;8.23;;;5.90;99.90;;;;;;5019287;28;20028;-73
2021/01/08 03:48:52;;;;;;;8.85;6.90;;;5.90;99.90;;;;;;5019165;28;20098;-74
2021/01/08 03:51:17;;;;;;;9.30;7.57;;;5.90;99.90;;;;;;5019748;28;20029;-73
2021/01/08 03:53:44;;;;;;;11.15;8.00;;;6.10;99.90;;;;;;5020047;28;20512;-73
2021/01/08 03:56:10;;;;;;;11.32;8.07;;;6.10;99.90;;;;;;5019304;28;20110;-75
2021/01/08 03:58:35;;;;;;;12.75;8.95;;;6.10;99.90;;;;;;5018574;28;20125;-73
2021/01/08 04:01:01;;;;;;;11.63;7.30;;;6.00;99.90;;;;;;5018435;28;20116;-73
2021/01/08 04:03:27;;;;;;;13.10;9.07;;;6.00;99.90;;;;;;5023021;28;20022;-73
2021/01/08 04:05:53;;;;;;;9.57;7.97;;;6.00;99.90;;;;;;5025359;28;20034;-73
2021/01/08 04:08:19;;;;;;;8.77;7.85;;;6.00;99.90;;;;;;5023818;28;20030;-73
2021/01/08 04:10:44;;;;;;;11.25;8.52;;;6.00;99.90;;;;;;5019739;28;20510;-73
2021/01/08 04:13:10;;;;;;;15.68;9.07;;;6.00;99.90;;;;;;5019199;28;20370;-75
2021/01/08 04:15:36;;;;;;;11.68;7.88;;;6.00;99.90;;;;;;5017534;28;20080;-73
2021/01/08 04:18:02;;;;;;;11.65;8.45;;;6.00;99.90;;;;;;5019204;28;20064;-73
2021/01/08 04:20:28;;;;;;;9.10;7.63;;;6.00;99.90;;;;;;5020142;28;20026;-73
2021/01/08 04:22:54;;;;;;;10.20;8.15;;;6.00;99.90;;;;;;5019216;28;20033;-73
2021/01/08 04:25:19;;;;;;;10.95;8.55;;;6.00;99.90;;;;;;5019112;28;20030;-73
2021/01/08 04:27:45;;;;;;;10.25;8.65;;;6.10;99.90;;;;;;5019341;28;20087;-73
2021/01/08 04:30:12;;;;;;;13.88;9.57;;;6.00;99.90;;;;;;5018282;28;20096;-73
2021/01/08 04:32:37;;;;;;;12.70;7.03;;;6.00;99.90;;;;;;5015723;28;20030;-73
2021/01/08 04:35:04;;;;;;;11.02;8.85;;;6.10;99.90;;;;;;5016257;28;20033;-73
2021/01/08 04:37:30;;;;;;;11.80;8.45;;;6.10;99.90;;;;;;5016258;28;20137;-73
2021/01/08 04:39:55;;;;;;;10.18;7.28;;;6.10;99.90;;;;;;5016252;28;20506;-73
2021/01/08 04:42:21;;;;;;;11.95;7.90;;;6.10;99.90;;;;;;5016665;28;20029;-74
2021/01/08 04:44:47;;;;;;;9.30;7.20;;;6.10;99.90;;;;;;5015276;28;20474;-73
2021/01/08 04:47:14;;;;;;;10.32;7.78;;;6.10;99.90;;;;;;5016371;28;20026;-73
2021/01/08 04:49:40;;;;;;;9.73;7.60;;;6.00;99.90;;;;;;5016669;28;20021;-74
2021/01/08 04:52:08;;;;;;;10.55;7.70;;;6.00;99.90;;;;;;5016514;28;20458;-73
2021/01/08 04:54:35;;;;;;;10.40;8.07;;;6.10;99.90;;;;;;5014571;28;20026;-73
2021/01/08 04:57:03;;;;;;;8.48;6.65;;;6.10;99.90;;;;;;5015720;28;20022;-75
2021/01/08 04:59:30;;;;;;;9.13;7.50;;;6.10;99.90;;;;;;5014297;28;20048;-74
2021/01/08 05:01:57;;;;;;;10.02;7.88;;;6.10;99.90;;;;;;5015313;28;20029;-73
2021/01/08 05:04:23;;;;;;;8.95;6.85;;;6.10;99.90;;;;;;5014054;28;20456;-75
2021/01/08 05:06:50;;;;;;;11.32;7.95;;;6.10;99.90;;;;;;5015192;28;20174;-73
2021/01/08 05:09:16;;;;;;;10.65;7.88;;;6.10;99.90;;;;;;5015473;28;20073;-73
2021/01/08 05:11:45;;;;;;;11.50;7.15;;;6.10;99.90;;;;;;5015233;28;20544;-73
2021/01/08 05:14:14;;;;;;;9.27;6.95;;;6.00;99.90;;;;;;5015476;28;20032;-73
2021/01/08 05:16:40;;;;;;;10.07;7.05;;;6.00;99.90;;;;;;5013368;28;20030;-72
2021/01/08 05:19:07;;;;;;;9.18;7.30;;;6.00;99.90;;;;;;5015398;28;20025;-73
2021/01/08 05:21:33;;;;;;;12.18;7.07;;;6.10;99.90;;;;;;5015224;28;20028;-73
2021/01/08 05:24:03;;;;;;;11.10;8.05;;;6.10;99.90;;;;;;5015142;28;20029;-73
2021/01/08 05:26:30;;;;;;;10.13;7.55;;;6.10;99.90;;;;;;5015115;28;20025;-72
2021/01/08 05:29:03;;;;;;;8.02;6.50;;;6.10;99.90;;;;;;5014068;28;20493;-73
2021/01/08 05:31:31;;;;;;;10.50;7.68;;;6.00;99.90;;;;;;5014943;28;20044;-74
2021/01/08 05:33:57;;;;;;;8.02;7.18;;;6.10;99.90;;;;;;5015283;28;20432;-73
2021/01/08 05:36:24;;;;;;;9.10;6.28;;;6.00;99.90;;;;;;5018088;28;20041;-73
2021/01/08 05:38:58;;;;;;;11.07;7.20;;;6.10;99.90;;;;;;5023341;28;20025;-73
2021/01/08 05:41:29;;;;;;;8.43;6.43;;;6.10;99.90;;;;;;5023209;28;20041;-73
2021/01/08 05:43:56;;;;;;;8.32;7.45;;;6.00;99.90;;;;;;5023390;28;20040;-72
2021/01/08 05:46:34;;;;;;;9.57;7.60;;;6.00;99.90;;;;;;5026773;28;20029;-73
2021/01/08 05:49:02;;;;;;;9.93;6.03;;;6.00;99.90;;;;;;5028994;28;20037;-73
2021/01/08 05:51:38;;;;;;;9.18;7.25;;;6.10;99.90;;;;;;5025107;28;20024;-77
2021/01/08 05:54:05;;;;;;;9.88;8.48;;;6.10;99.90;;;;;;5028341;28;20022;-73
2021/01/08 05:56:35;;;;;;;11.63;7.38;;;6.10;99.90;;;;;;5020160;28;20053;-73
2021/01/08 05:59:08;;;;;;;10.10;7.88;;;6.10;99.90;;;;;;5016698;28;20025;-73
2021/01/08 06:01:37;;;;;;;10.20;7.72;;;6.10;99.90;;;;;;5014404;28;20022;-73
2021/01/08 06:04:03;;;;;;;8.30;6.63;;;6.20;99.90;;;;;;5011720;28;20050;-74
2021/01/08 06:06:42;;;;;;;8.27;7.18;;;6.20;99.90;;;;;;5014736;28;20711;-73
2021/01/08 06:09:14;;;;;;;10.18;7.53;;;6.30;99.90;;;;;;5014158;28;20038;-76
2021/01/08 06:11:45;;;;;;;;;;;6.20;99.90;;;;;;5013552;28;20036;-72
2021/01/08 06:14:13;;;;;;;9.02;7.40;;;6.20;99.90;;;;;;5017237;28;20071;-73
2021/01/08 06:16:43;;;;;;;11.20;8.07;;;6.30;99.90;;;;;;5018684;28;20093;-73
2021/01/08 06:19:09;;;;;;;10.95;7.88;;;6.30;99.90;;;;;;5008645;28;20018;-73
2021/01/08 06:21:42;;;;;;;9.95;7.43;;;6.30;99.90;;;;;;5005858;28;20413;-73
2021/01/08 06:24:28;;;;;;;8.32;6.50;;;6.30;99.90;;;;;;4999405;28;20101;-73
2021/01/08 06:26:54;;;;;;;8.82;7.63;;;6.20;99.90;;;;;;5015009;28;20556;-73
2021/01/08 06:29:24;;;;;;;9.52;7.85;;;6.30;99.90;;;;;;5013980;28;20393;-73
2021/01/08 06:31:51;;;;;;;13.23;7.57;;;6.30;99.90;;;;;;5014426;28;20443;-73
2021/01/08 06:34:30;;;;;;;8.60;7.18;;;6.20;99.90;;;;;;5014504;28;20050;-73
2021/01/08 06:37:03;;;;;;;15.38;7.95;;;6.20;99.90;;;;;;5012356;28;20026;-73
2021/01/08 06:39:34;;;;;;;9.27;7.97;;;6.20;99.90;;;;;;5007240;28;20029;-73
2021/01/08 06:42:01;;;;;;;9.25;7.88;;;6.20;99.90;;;;;;5012647;28;20041;-73
2021/01/08 06:44:30;;;;;;;9.68;8.38;;;6.20;99.90;;;;;;5013155;28;20018;-73
2021/01/08 06:46:58;;;;;;;7.65;6.85;;;6.20;99.90;;;;;;5009402;28;20503;-72
2021/01/08 06:49:25;;;;;;;14.02;8.88;;;6.20;99.90;;;;;;5014532;28;20040;-72
2021/01/08 06:51:51;;;;;;;12.80;9.23;;;6.10;99.90;;;;;;5016603;28;20523;-71
2021/01/08 06:54:16;;;;;;;13.10;9.50;;;6.10;99.90;;;;;;5015208;28;20026;-73
2021/01/08 06:56:44;;;;;;;15.50;9.38;;;6.10;99.90;;;;;;5012312;28;20033;-73
2021/01/08 06:59:11;;;;;;;9.98;8.35;;;6.20;99.90;;;;;;5013467;28;20045;-72
2021/01/08 07:01:41;;;;;;;14.77;8.57;;;6.20;99.90;;;;;;5010679;28;20033;-73
2021/01/08 07:04:09;;;;;;;9.95;8.75;;;6.20;99.90;;;;;;5012036;28;20025;-73
2021/01/08 07:06:37;;;;;;;11.98;9.68;;;6.20;99.90;;;;;;5011712;28;20564;-73
2021/01/08 07:09:05;;;;;;;12.05;9.60;;;6.10;99.90;;;;;;5013142;28;20036;-73
2021/01/08 07:11:32;;;;;;;10.70;8.40;;;6.20;99.90;;;;;;5012320;28;20105;-73
2021/01/08 07:14:14;;;;;;;13.93;10.25;;;6.30;99.90;;;;;;5012233;28;20056;-73
2021/01/08 07:16:49;;;;;;;12.55;9.82;;;6.30;99.90;;;;;;5007291;28;20029;-73
2021/01/08 07:19:19;;;;;;;14.85;10.55;;;6.50;99.90;;;;;;5009179;28;20030;-73
2021/01/08 07:21:50;;;;;;;11.85;9.95;;;6.50;99.90;;;;;;5010314;28;20026;-73
2021/01/08 07:24:23;;;;;;;13.02;10.45;;;6.50;99.90;;;;;;5012880;28;20018;-71
2021/01/08 07:26:49;;;;;;;14.90;10.32;;;6.60;99.90;;;;;;5012246;28;20533;-73
2021/01/08 07:29:15;;;;;;;14.00;10.93;;;6.60;99.90;;;;;;5012375;28;20053;-73
2021/01/08 07:31:43;;;;;;;15.52;11.38;;;6.50;99.90;;;;;;5011783;28;20038;-73
2021/01/08 07:34:10;;;;;;;19.33;10.82;;;6.50;99.90;;;;;;5011570;28;20084;-73
2021/01/08 07:36:37;;;;;;;13.07;11.18;;;6.50;99.90;;;;;;5006810;28;20037;-73
2021/01/08 07:39:05;;;;;;;14.30;10.82;;;6.50;99.90;;;;;;5010817;28;20454;-72
2021/01/08 07:41:40;;;;;;;13.73;10.45;;;6.50;99.90;;;;;;5013331;28;20017;-72
2021/01/08 07:44:30;;;;;;;14.30;10.73;;;6.50;99.90;;;;;;5010936;28;20030;-73
2021/01/08 07:46:56;;;;;;;14.15;11.82;;;6.50;99.90;;;;;;4998861;28;20121;-73
2021/01/08 07:49:28;;;;;;;12.90;11.05;;;6.50;99.90;;;;;;5011312;28;20058;-73
2021/01/08 07:51:54;;;;;;;12.88;11.50;;;6.60;99.90;;;;;;5011497;28;20037;-72
2021/01/08 07:54:53;;;;;;;11.60;10.40;;;6.60;99.90;;;;;;5012022;28;20030;-73
2021/01/08 07:57:19;;;;;;;16.38;12.32;;;6.70;99.90;;;;;;5006443;28;20062;-73
2021/01/08 07:59:45;;;;;;;16.90;11.15;;;6.70;99.90;;;;;;5010880;28;20046;-74
2021/01/08 08:02:11;;;;;;;13.93;10.20;;;6.70;99.90;;;;;;5009328;28;20025;-72
2021/01/08 08:04:37;;;;;;;16.65;11.60;;;6.70;99.90;;;;;;5010269;28;20022;-72
2021/01/08 08:07:04;;;;;;;16.80;11.38;;;6.70;99.90;;;;;;5015607;28;20469;-72
2021/01/08 08:09:29;;;;;;;11.00;9.85;;;6.70;99.90;;;;;;5020394;28;20084;-72
2021/01/08 08:11:55;;;;;;;14.15;10.93;;;6.70;99.90;;;;;;5020118;28;20034;-72
2021/01/08 08:14:22;;;;;;;16.35;11.13;;;6.70;99.90;;;;;;5019279;28;20032;-72
2021/01/08 08:16:49;;;;;;;15.00;11.20;;;6.70;99.90;;;;;;5018874;28;20030;-73
2021/01/08 08:19:16;;;;;;;13.85;11.48;;;6.70;99.90;;;;;;5015021;28;20457;-72
2021/01/08 08:21:47;;;;;;;17.65;12.25;;;6.70;99.90;;;;;;5012472;28;20085;-72
2021/01/08 08:24:14;;;;;;;16.30;11.82;;;6.80;99.90;;;;;;5013352;28;20525;-72
2021/01/08 08:26:41;;;;;;;13.90;10.18;;;6.80;99.90;;;;;;5013279;28;20032;-72
2021/01/08 08:29:12;;;;;;;15.38;11.35;;;6.80;99.90;;;;;;5012662;28;20073;-72
2021/01/08 08:31:40;;;;;;;14.27;11.30;;;6.80;99.90;;;;;;5012449;28;20041;-73
2021/01/08 08:34:08;;;;;;;14.13;11.45;;;6.80;99.90;;;;;;5011811;28;20386;-72
2021/01/08 08:36:35;;;;;;;14.80;11.02;;;6.80;99.90;;;;;;5011709;28;20025;-72
2021/01/08 08:39:11;;;;;;;13.40;10.82;;;6.70;99.90;;;;;;5009824;28;20033;-72
2021/01/08 08:41:44;;;;;;;18.65;10.48;;;6.80;99.90;;;;;;5013961;28;20022;-72
2021/01/08 08:44:18;;;;;;;11.40;9.90;;;6.80;99.90;;;;;;5004837;28;20026;-72
2021/01/08 08:46:52;;;;;;;14.38;11.30;;;6.90;99.90;;;;;;4998417;28;20097;-72
2021/01/08 08:49:28;;;;;;;13.82;9.45;;;6.90;99.90;;;;;;5012269;28;20025;-74
2021/01/08 08:51:56;;;;;;;11.10;9.60;;;6.70;99.90;;;;;;5015032;28;20057;-72
2021/01/08 08:54:26;;;;;;;12.45;9.68;;;6.60;99.90;;;;;;5014161;28;20030;-72
2021/01/08 08:56:56;;;;;;;13.25;9.10;;;6.50;99.90;;;;;;5014835;28;20026;-72
2021/01/08 08:59:45;;;;;;;13.13;9.27;;;6.50;99.90;;;;;;5013504;28;20535;-72
2021/01/08 09:02:23;;;;;;;12.07;7.75;;;6.50;99.90;;;;;;5013719;28;20485;-72
2021/01/08 09:04:55;;;;;;;10.55;7.95;;;6.50;99.90;;;;;;5014284;28;20378;-73
2021/01/08 09:07:25;;;;;;;9.65;7.80;;;6.40;99.90;;;;;;5020535;28;20097;-72
2021/01/08 09:09:58;;;;;;;10.68;8.30;;;6.40;99.90;;;;;;5019063;28;20042;-73
2021/01/08 09:12:40;;;;;;;7.80;6.70;;;6.40;99.90;;;;;;5011997;28;20092;-72
2021/01/08 09:15:21;;;;;;;7.57;5.68;;;6.30;99.90;;;;;;5008167;28;20116;-73
2021/01/08 09:17:51;;;;;;;9.80;5.28;;;6.20;99.90;;;;;;5005020;28;20026;-73
2021/01/08 09:20:18;;;;;;;8.52;5.63;;;6.20;99.90;;;;;;5003524;28;20014;-72
2021/01/08 09:22:45;;;;;;;7.22;5.30;;;6.20;99.90;;;;;;5002281;28;20034;-73
2021/01/08 09:25:12;;;;;;;6.60;5.28;;;6.20;99.90;;;;;;5003146;28;20097;-74
2021/01/08 09:27:42;;;;;;;6.05;4.15;;;6.10;99.90;;;;;;5002461;28;20026;-73
2021/01/08 09:30:09;;;;;;;6.05;4.47;;;6.10;99.90;;;;;;5012991;28;20029;-73
2021/01/08 09:32:36;;;;;;;6.82;4.10;;;6.00;99.90;;;;;;5012078;28;20037;-73
2021/01/08 09:35:08;;;;;;;4.10;3.70;;;6.00;99.90;;;;;;5008970;28;20482;-72
2021/01/08 09:37:38;;;;;;;5.32;4.63;;;6.00;99.90;;;;;;5011608;28;20022;-73
2021/01/08 09:40:16;;;;;;;6.22;4.50;;;6.10;99.90;;;;;;5013198;28;20034;-72
2021/01/08 09:42:44;;;;;;;5.72;3.33;;;6.10;99.90;;;;;;5014378;28;20033;-73
2021/01/08 09:45:24;;;;;;;7.10;4.72;;;6.20;99.90;;;;;;5013149;28;20448;-73
2021/01/08 09:47:51;;;;;;;3.42;3.13;;;6.30;99.90;;;;;;5012787;28;20029;-73
2021/01/08 09:50:34;;;;;;;4.35;3.95;;;6.40;99.90;;;;;;5013373;28;20049;-73
2021/01/08 09:53:12;;;;;;;6.40;5.35;;;6.40;99.90;;;;;;5013774;28;20032;-73
2021/01/08 09:55:38;;;;;;;4.47;3.45;;;6.50;99.90;;;;;;5011873;28;20041;-72
2021/01/08 09:58:03;;;;;;;4.03;3.55;;;6.50;99.90;;;;;;5013035;28;20370;-75
2021/01/08 10:00:34;;;;;;;9.43;3.88;;;6.50;99.90;;;;;;5012105;28;20541;-72
2021/01/08 10:03:00;;;;;;;5.45;3.60;;;6.70;99.90;;;;;;5013840;28;20556;-73
2021/01/08 10:05:35;;;;;;;3.67;3.38;;;6.80;99.90;;;;;;5011991;28;20034;-73
2021/01/08 10:08:03;;;;;;;3.80;3.20;;;6.80;99.90;;;;;;5011344;28;20060;-73
2021/01/08 10:10:28;;;;;;;2.90;2.67;;;6.80;99.90;;;;;;5013662;28;20048;-74
2021/01/08 10:12:56;;;;;;;4.53;4.10;;;6.80;99.90;;;;;;5013458;28;20409;-73
2021/01/08 10:15:39;;;;;;;4.68;4.15;;;6.80;99.90;;;;;;5012081;28;20037;-73
2021/01/08 10:18:16;;;;;;;4.13;3.30;;;6.90;99.90;;;;;;5010726;28;20017;-73
2021/01/08 10:20:53;;;;;;;4.40;4.00;;;6.90;99.90;;;;;;5009810;28;20120;-73
2021/01/08 10:23:21;;;;;;;6.07;4.45;;;6.80;99.90;;;;;;5010943;28;20022;-73
2021/01/08 10:25:48;;;;;;;4.70;3.40;;;6.90;99.90;;;;;;5013188;28;20552;-72
2021/01/08 10:28:19;;;;;;;3.78;2.92;;;6.90;99.90;;;;;;5011977;28;20049;-73
2021/01/08 10:30:47;;;;;;;4.78;3.75;;;6.80;99.90;;;;;;5010195;28;20402;-71
2021/01/08 10:33:14;;;;;;;6.60;3.97;;;6.80;99.90;;;;;;5010837;28;20034;-72
2021/01/08 10:35:48;;;;;;;4.20;3.78;;;6.80;99.90;;;;;;5010225;28;20057;-72
2021/01/08 10:38:14;;;;;;;4.20;3.80;;;6.90;99.90;;;;;;5012172;28;20014;-72
2021/01/08 10:40:40;;;;;;;4.03;3.63;;;6.90;99.90;;;;;;5007835;28;20032;-72
2021/01/08 10:43:06;;;;;;;16.42;3.75;;;6.90;99.90;;;;;;5010079;28;20029;-72
2021/01/08 10:45:32;;;;;;;3.30;3.05;;;6.80;99.90;;;;;;5011319;28;20026;-72
2021/01/08 10:47:58;;;;;;;3.53;3.22;;;6.80;99.90;;;;;;5012325;28;20036;-72
2021/01/08 10:50:24;;;;;;;3.85;2.85;;;6.70;99.90;;;;;;5010882;28;20105;-73
2021/01/08 10:52:50;;;;;;;3.40;3.08;;;6.70;99.90;;;;;;5011696;28;20029;-71
2021/01/08 10:55:15;;;;;;;4.38;2.90;;;6.80;99.90;;;;;;5011102;28;20037;-72
2021/01/08 10:57:42;;;;;;;3.95;2.97;;;6.80;99.90;;;;;;5010935;28;20040;-71
2021/01/08 11:00:09;;;;;;;3.95;3.13;;;6.80;99.90;;;;;;5007668;28;20049;-72
2021/01/08 11:02:36;;;;;;;4.32;2.80;;;6.70;99.90;;;;;;5011925;28;20418;-72
2021/01/08 11:05:04;;;;;;;4.07;3.28;;;6.80;99.90;;;;;;5010868;28;20433;-71
2021/01/08 11:07:33;;;;;;;4.13;3.70;;;6.70;99.90;;;;;;5010855;28;20481;-71
2021/01/08 11:10:04;;;;;;;6.18;3.10;;;6.80;99.90;;;;;;5012223;28;20079;-71
2021/01/08 11:12:31;;;;;;;3.55;3.25;;;6.90;99.90;;;;;;5011336;28;20026;-71
2021/01/08 11:14:58;;;;;;;3.55;3.22;;;7.00;99.90;;;;;;5011731;28;20068;-71
2021/01/08 11:17:24;;;;;;;3.95;3.55;;;7.10;99.90;;;;;;5011988;28;20030;-72
2021/01/08 11:19:51;;;;;;;3.28;2.83;;;7.00;99.90;;;;;;5011784;28;20108;-73
2021/01/08 11:22:16;;;;;;;3.78;3.13;;;6.90;99.90;;;;;;5011937;28;20037;-72
2021/01/08 11:24:42;;;;;;;4.47;4.07;;;7.00;99.90;;;;;;5012588;28;20022;-72
2021/01/08 11:27:08;;;;;;;4.63;3.67;;;7.10;99.90;;;;;;5010445;28;20034;-71
2021/01/08 11:29:34;;;;;;;3.67;3.00;;;7.20;99.90;;;;;;5009226;28;20489;-72
2021/01/08 11:32:00;;;;;;;3.03;2.35;;;7.30;99.90;;;;;;5012744;28;20048;-72
2021/01/08 11:34:26;;;;;;;3.22;2.90;;;7.10;99.90;;;;;;5012637;28;20025;-72
2021/01/08 11:36:56;;;;;;;7.72;3.88;;;7.00;99.90;;;;;;5010493;28;20113;-71
2021/01/08 11:39:23;;;;;;;2.72;2.55;;;7.00;99.90;;;;;;5011614;28;20014;-71
2021/01/08 11:41:48;;;;;;;3.65;3.33;;;7.10;99.90;;;;;;5012365;28;20108;-71
2021/01/08 11:44:14;;;;;;;3.90;3.08;;;7.00;99.90;;;;;;5015649;28;20516;-71
2021/01/08 11:46:43;;;;;;;2.83;2.63;;;7.00;99.90;;;;;;5016219;28;20057;-75
2021/01/08 11:49:09;;;;;;;3.10;2.80;;;7.00;99.90;;;;;;5014150;28;20045;-71
2021/01/08 11:51:35;;;;;;;5.07;3.20;;;7.00;99.90;;;;;;5015787;28;20033;-71
2021/01/08 11:54:01;;;;;;;4.97;4.10;;;7.00;99.90;;;;;;5014093;28;20033;-71
2021/01/08 11:56:31;;;;;;;4.55;3.72;;;7.00;99.90;;;;;;5016210;28;20026;-71
2021/01/08 11:58:57;;;;;;;3.45;3.10;;;7.10;99.90;;;;;;5016092;28;20101;-72
2021/01/08 12:01:27;;;;;;;7.00;3.88;;;7.10;99.90;;;;;;5013658;28;20033;-71
2021/01/08 12:03:54;;;;;;;3.70;2.90;;;7.20;99.90;;;;;;5015397;28;20025;-72
2021/01/08 12:06:31;;;;;;;3.33;2.72;;;7.20;99.90;;;;;;5017759;28;20458;-71
2021/01/08 12:08:57;;;;;;;5.82;2.92;;;7.20;99.90;;;;;;5015711;28;20076;-72
2021/01/08 12:11:27;;;;;;;3.55;3.13;;;7.30;99.90;;;;;;5015937;28;20033;-70
2021/01/08 12:13:53;;;;;;;3.53;3.15;;;7.30;99.90;;;;;;5015061;28;20049;-71
2021/01/08 12:16:32;;;;;;;3.83;3.17;;;7.30;99.90;;;;;;5015594;28;20064;-72
2021/01/08 12:18:59;;;;;;;4.40;3.03;;;7.20;99.90;;;;;;5009159;28;20117;-71
2021/01/08 12:21:25;;;;;;;2.85;2.65;;;7.10;99.90;;;;;;5009134;28;20022;-73
2021/01/08 12:23:52;;;;;;;4.32;3.92;;;7.10;99.90;;;;;;5008811;28;20018;-71
2021/01/08 12:26:19;;;;;;;4.00;3.50;;;7.10;99.90;;;;;;5007928;28;20026;-72
2021/01/08 12:28:45;;;;;;;3.47;3.17;;;7.10;99.90;;;;;;5005684;28;20021;-72
2021/01/08 12:31:11;;;;;;;3.45;2.55;;;7.20;99.90;;;;;;5014872;28;20042;-72
2021/01/08 12:33:37;;;;;;;4.00;3.60;;;7.00;99.90;;;;;;5015615;28;20025;-72
2021/01/08 12:36:05;;;;;;;12.38;3.92;;;7.10;99.90;;;;;;5015613;28;20018;-71
2021/01/08 12:38:32;;;;;;;6.22;2.53;;;7.20;99.90;;;;;;5010912;28;20052;-71
2021/01/08 12:40:58;;;;;;;3.17;2.88;;;7.20;99.90;;;;;;5012856;28;20018;-71
2021/01/08 12:43:24;;;;;;;3.90;3.38;;;7.00;99.90;;;;;;5015216;28;20025;-72
2021/01/08 12:45:50;;;;;;;6.40;4.53;;;7.00;99.90;;;;;;5011102;28;20029;-71
2021/01/08 12:48:17;;;;;;;5.65;4.43;;;7.10;99.90;;;;;;5014729;28;20076;-71
2021/01/08 12:50:43;;;;;;;6.22;2.95;;;7.00;99.90;;;;;;5014814;28;20405;-71
2021/01/08 12:53:09;;;;;;;5.18;3.47;;;7.00;99.90;;;;;;5014459;28;20036;-71
2021/01/08 12:55:35;;;;;;;3.55;3.08;;;7.00;99.90;;;;;;5014616;28;20088;-71